"WATCHING THE WEATHER TO PROTECT LIFE AND PROPERTY"


THERE ARE CURRENTLY NO WATCHES NOR WARNINGS


Aviation
Satellite (InfraRed)


TNCA 222000Z 08018KT 9999 SCT021 32/26 Q1010 NOSIG
TNCB 221955Z 10015KT 080V160 9999 FEW021 32/24 Q1010
TNCC 222000Z 09012KT 9999 FEW020 32/26 Q1010 NOSIG=
TNCM 222000Z 06012KT 030V100 9999 SCT018 32/26 Q1016 NOSIG